Hauptseite
METAR-TAF:

METAR-TAF

Flughäfen :

South Jersey Regional Airport

Mount Holly, New Jersey, Vereinigte Staaten

Breite: 39-56-26N, Länge: 074-50-28W, Höhe: 16 m

Beobachtung

Neuester Wetterbericht von vor 14 Minuten, um 00:54 UTC
Wind 7 kt aus West
Temperatur 2°C
Luftfeuchtigkeit 47%
Luftdruck 1030 hPa
Sichtweite: 16.1 km
Himmel klar

METAR: KVAY 120054Z AUTO 26007KT 10SM CLR 02/M08 A3042 RMK AO2 SLP303 T00171083

Zeit: 20:08 (01:08 UTC)


TAF: fehlend

Wetterbeobachtungen und Prognosen von mehr als 4000 Flughäfen (METAR und TAF Bericht).

Die verfügbaren Stationen werden durch gelbe und rote Markierungen auf der Karte dargestellt.

Führen Sie die Maus auf sie, um den Namen der Station zu sehen.

Darauf klicken, um die Beobachtung von Wetterbeobachtungen und Prognosen zu sehen.

Um die Karte zu ändern : klicken Sie auf den grünen Tasten mit einem schwarzen Kreuz Zum Vergrößern, auf den grünen Button mit einem Gedankenstrich zu verkleinern, oder auf die grünen Pfeile für benachbarte Karten.


METAR-TAF: